Fort Wayne, IN

5:42 AM EDT on August 30, 2015 (GMT -0400)
Fort Wayne International | | Change Station
CLOSE
Current Station
Airport
Location: Fort Wayne,
Elevation: 827 ft
Nearby Weather Stations

Elev 827 ft 40.98 °N, 85.19 °W | Updated 48 minutes ago

Overcast
Overcast
67 °F
Feels Like 67 °F
N
5
Wind Variable Wind from SSE

Today
High -- | Low -- °F
--% Chance of Precip.
Yesterday
High -- | Low -- °F
Precip. -- in
7:05 AM 8:16 PM
Waxing Gibbous, 99% visible
Pressure 30.02 in
Visibility 6.0 miles
Clouds Few 200 ft
Scattered Clouds 7500 ft
Mostly Cloudy 9000 ft
Overcast 14000 ft
Dew Point 66 °F
Humidity 97%
Rainfall 0.00 in
Snow Depth Not available.
UV 0 out of 12
Pollen 9.30 out of 12
Air Quality Not available.
Flu Activity Not available.
METAR KFWA 300854Z 16004KT 6SM BR FEW002 SCT075 BKN090 OVC140 19/19 A3003 RMK AO2 SLP166 60000 T01940189 56008
Pressure 30.02 in
Visibility 6.0 miles
Clouds Few 200 ft
Scattered Clouds 7500 ft
Mostly Cloudy 9000 ft
Overcast 14000 ft
Dew Point 66 °F
Humidity 97%
Rainfall 0.00 in
Snow Depth Not available.
UV 0 out of 12
Pollen 9.30 out of 12
Air Quality Not available.
Flu Activity Not available.
METAR KFWA 300854Z 16004KT 6SM BR FEW002 SCT075 BKN090 OVC140 19/19 A3003 RMK AO2 SLP166 60000 T01940189 56008

10-Day Weather Forecast

×

Almanac

Astronomy

Aug. 30, 2015 Rise Set
Actual Time
Civil Twilight
Nautical Twilight
Astronomical Twilight
Moon
Length of Visible Light
Length of Day
Tomorrow will be .
, % of the Moon is Illuminated

Today's Extremes

State Highs State Lows

Community

WunderPhotos

Upload Photos

1,850,919 photos uploaded!

WunderBlogs® & News

Nearby

Air Quality

  Air Quality AQ Index Pollutant
Not available.

Snow Depth

Station Depth Elevation

Earthquake Activity

City Distance Mag. Time & Date
Minimum magnitude displayed is 2.5.

Coastal Water Temperatures

Place Temperature

Stations

Nearby Weather Stations

Station Location Temp. Windchill Dew Point Humidity Wind Precip. Elev Updated Type